Time;durP1;ratioP1;P1;durP2;ratioP2;P2;SDS_P1;SDS_P2;PMS_P1;PMS_P2;Temp;Humidity;BMP_temperature;BMP_pressure;BME280_temperature;BME280_humidity;BME280_pressure;Samples;Min_cycle;Max_cycle;Signal;HPM_P1;HPM_P2
2021/08/21 00:01:20;;;;;;;7.45;4.95;;;16.80;99.90;;;;;;6219711;23;20443;-84
2021/08/21 00:03:46;;;;;;;7.55;5.07;;;16.80;99.90;;;;;;6220302;23;20001;-85
2021/08/21 00:06:12;;;;;;;7.72;4.90;;;16.80;99.90;;;;;;6198008;23;20024;-84
2021/08/21 00:08:38;;;;;;;9.32;5.38;;;16.80;99.90;;;;;;6221422;23;20157;-84
2021/08/21 00:11:04;;;;;;;9.00;4.57;;;16.70;99.90;;;;;;6196673;23;20024;-84
2021/08/21 00:13:29;;;;;;;9.35;5.28;;;16.70;99.90;;;;;;6222543;23;20012;-84
2021/08/21 00:15:55;;;;;;;7.22;5.05;;;16.70;99.90;;;;;;6223082;23;20001;-84
2021/08/21 00:18:21;;;;;;;7.93;5.10;;;16.70;99.90;;;;;;6224179;23;20009;-85
2021/08/21 00:20:47;;;;;;;9.57;5.05;;;16.70;99.90;;;;;;6227500;23;20001;-84
2021/08/21 00:23:13;;;;;;;5.75;4.63;;;16.70;99.90;;;;;;6221695;23;20001;-85
2021/08/21 00:25:39;;;;;;;8.25;4.72;;;16.70;99.90;;;;;;6195292;23;20056;-84
2021/08/21 00:28:04;;;;;;;8.70;5.00;;;16.70;99.90;;;;;;6219976;23;20020;-84
2021/08/21 00:30:30;;;;;;;7.90;5.93;;;16.60;99.90;;;;;;6217970;23;20456;-84
2021/08/21 00:32:56;;;;;;;6.93;5.18;;;16.60;99.90;;;;;;6221007;23;20068;-84
2021/08/21 00:35:21;;;;;;;8.63;5.82;;;16.70;99.90;;;;;;6196927;23;20015;-84
2021/08/21 00:37:47;;;;;;;7.78;5.45;;;16.60;99.90;;;;;;6221704;23;20031;-84
2021/08/21 00:40:13;;;;;;;8.85;5.90;;;16.60;99.90;;;;;;6218944;23;20012;-85
2021/08/21 00:42:39;;;;;;;7.75;5.90;;;16.60;99.90;;;;;;6198820;23;20001;-84
2021/08/21 00:45:06;;;;;;;8.30;5.50;;;16.60;99.90;;;;;;6198860;23;20440;-84
2021/08/21 00:47:32;;;;;;;9.43;5.30;;;16.60;99.90;;;;;;6229665;23;20020;-84
2021/08/21 00:49:58;;;;;;;9.05;6.28;;;16.60;99.90;;;;;;6228265;23;20016;-85
2021/08/21 00:52:27;;;;;;;7.38;5.03;;;16.50;99.90;;;;;;6206634;23;20027;-84
2021/08/21 00:54:55;;;;;;;7.68;5.20;;;16.50;99.90;;;;;;6228974;23;20024;-84
2021/08/21 00:57:20;;;;;;;7.38;4.90;;;16.50;99.90;;;;;;6225200;23;20005;-84
2021/08/21 00:59:48;;;;;;;8.32;5.20;;;16.50;99.90;;;;;;6200391;23;20012;-85
2021/08/21 01:02:14;;;;;;;9.55;5.00;;;16.50;99.90;;;;;;6200733;23;20012;-84
2021/08/21 01:04:43;;;;;;;8.40;5.10;;;16.40;99.90;;;;;;6201286;23;20051;-84
2021/08/21 01:07:11;;;;;;;7.63;5.23;;;16.40;99.90;;;;;;6226025;23;20009;-84
2021/08/21 01:09:38;;;;;;;6.97;5.20;;;16.40;99.90;;;;;;6222453;23;20005;-84
2021/08/21 01:12:16;;;;;;;9.65;5.80;;;16.40;99.90;;;;;;6200215;23;20016;-83
2021/08/21 01:14:43;;;;;;;8.85;5.50;;;16.40;99.90;;;;;;6201212;23;20328;-84
2021/08/21 01:17:09;;;;;;;8.43;5.55;;;16.40;99.90;;;;;;6224937;23;20084;-84
2021/08/21 01:19:40;;;;;;;9.82;5.35;;;16.40;99.90;;;;;;6200122;23;20001;-84
2021/08/21 01:22:09;;;;;;;8.77;5.57;;;16.40;99.90;;;;;;6223333;23;20092;-85
2021/08/21 01:24:36;;;;;;;7.22;4.97;;;16.40;99.90;;;;;;6200436;23;20028;-85
2021/08/21 01:27:02;;;;;;;10.55;5.93;;;16.40;99.90;;;;;;6204971;23;20016;-84
2021/08/21 01:29:27;;;;;;;9.38;5.57;;;16.50;99.90;;;;;;6204503;23;19997;-84
2021/08/21 01:31:53;;;;;;;9.25;6.07;;;16.40;99.90;;;;;;6227769;23;20024;-84
2021/08/21 01:34:22;;;;;;;10.50;5.97;;;16.40;99.90;;;;;;6198476;23;20024;-84
2021/08/21 01:36:50;;;;;;;9.25;6.00;;;16.40;99.90;;;;;;6208846;23;20404;-84
2021/08/21 01:39:16;;;;;;;7.50;5.57;;;16.40;99.90;;;;;;6207444;23;20040;-84
2021/08/21 01:41:42;;;;;;;10.10;5.95;;;16.30;99.90;;;;;;6209452;23;20028;-84
2021/08/21 01:44:10;;;;;;;11.23;6.32;;;16.30;99.90;;;;;;6210667;23;20013;-84
2021/08/21 01:46:35;;;;;;;10.23;6.20;;;16.20;99.90;;;;;;6186391;23;20015;-84
2021/08/21 01:49:02;;;;;;;7.53;5.63;;;16.20;99.90;;;;;;6184115;23;20036;-83
2021/08/21 01:51:30;;;;;;;7.90;5.82;;;16.20;99.90;;;;;;6185642;23;20016;-84
2021/08/21 01:53:57;;;;;;;11.82;6.53;;;16.30;99.90;;;;;;6183623;23;20025;-83
2021/08/21 01:56:26;;;;;;;9.20;6.55;;;16.20;99.90;;;;;;6185875;23;20013;-84
2021/08/21 01:58:52;;;;;;;9.95;5.97;;;16.10;99.90;;;;;;6185428;23;20092;-84
2021/08/21 02:01:18;;;;;;;8.90;6.70;;;16.20;99.90;;;;;;6183486;23;20115;-84
2021/08/21 02:03:46;;;;;;;10.18;6.00;;;16.20;99.90;;;;;;6186206;23;20379;-84
2021/08/21 02:06:13;;;;;;;10.00;6.20;;;16.20;99.90;;;;;;6184614;23;20009;-83
2021/08/21 02:08:39;;;;;;;8.48;6.05;;;16.20;99.90;;;;;;6184933;23;20669;-84
2021/08/21 02:11:04;;;;;;;10.07;5.88;;;16.20;99.90;;;;;;6184772;23;20008;-84
2021/08/21 02:13:30;;;;;;;9.40;6.35;;;16.20;99.90;;;;;;6183155;23;20002;-84
2021/08/21 02:15:55;;;;;;;11.80;6.30;;;16.20;99.90;;;;;;6183869;23;19997;-84
2021/08/21 02:18:21;;;;;;;9.63;5.72;;;16.20;99.90;;;;;;6183906;23;20009;-84
2021/08/21 02:20:47;;;;;;;9.85;5.80;;;16.20;99.90;;;;;;6185675;23;19998;-84
2021/08/21 02:23:13;;;;;;;10.73;6.22;;;16.20;99.90;;;;;;6185116;23;20005;-83
2021/08/21 02:25:39;;;;;;;10.30;6.35;;;16.10;99.90;;;;;;6185579;23;20005;-84
2021/08/21 02:28:10;;;;;;;8.95;5.82;;;16.10;99.90;;;;;;6184613;23;20351;-84
2021/08/21 02:30:39;;;;;;;10.88;6.13;;;16.10;99.90;;;;;;6187935;23;20005;-84
2021/08/21 02:33:05;;;;;;;13.20;6.82;;;16.10;99.90;;;;;;6188168;23;20092;-84
2021/08/21 02:35:32;;;;;;;8.57;6.15;;;16.10;99.90;;;;;;6188757;23;20336;-84
2021/08/21 02:37:58;;;;;;;10.50;6.18;;;16.00;99.90;;;;;;6191646;23;20064;-87
2021/08/21 02:40:23;;;;;;;8.25;6.38;;;16.00;99.90;;;;;;6198694;23;20006;-84
2021/08/21 02:42:52;;;;;;;9.98;6.30;;;15.90;99.90;;;;;;6187269;23;20081;-84
2021/08/21 02:45:18;;;;;;;8.23;6.28;;;15.90;99.90;;;;;;6186416;23;20065;-86
2021/08/21 02:47:44;;;;;;;10.63;6.93;;;16.00;99.90;;;;;;6209352;23;20017;-84
2021/08/21 02:50:10;;;;;;;13.07;7.13;;;16.00;99.90;;;;;;6187016;23;20012;-84
2021/08/21 02:52:36;;;;;;;8.15;6.07;;;15.90;99.90;;;;;;6211481;23;20021;-84
2021/08/21 02:55:02;;;;;;;9.98;6.30;;;16.00;99.90;;;;;;6210852;23;20402;-83
2021/08/21 02:57:29;;;;;;;8.32;6.30;;;15.90;99.90;;;;;;6211302;23;20009;-83
2021/08/21 02:59:55;;;;;;;12.57;6.70;;;15.90;99.90;;;;;;6210964;23;20092;-83
2021/08/21 03:02:20;;;;;;;11.38;7.07;;;16.00;99.90;;;;;;6210406;23;20001;-84
2021/08/21 03:04:46;;;;;;;9.93;6.72;;;16.00;99.90;;;;;;6210749;23;20084;-83
2021/08/21 03:07:12;;;;;;;10.68;6.95;;;15.90;99.90;;;;;;6210847;23;20009;-83
2021/08/21 03:09:37;;;;;;;10.05;6.10;;;15.90;99.90;;;;;;6209844;23;20045;-83
2021/08/21 03:12:03;;;;;;;9.65;6.85;;;15.90;99.90;;;;;;6211757;23;20432;-84
2021/08/21 03:14:29;;;;;;;10.73;6.30;;;15.90;99.90;;;;;;6211270;23;20012;-84
2021/08/21 03:16:54;;;;;;;9.73;6.90;;;15.90;99.90;;;;;;6211805;23;20001;-84
2021/08/21 03:19:20;;;;;;;11.57;7.15;;;15.80;99.90;;;;;;6210445;23;20005;-84
2021/08/21 03:21:46;;;;;;;12.15;7.30;;;15.80;99.90;;;;;;6212317;23;20001;-84
2021/08/21 03:24:11;;;;;;;10.98;7.57;;;15.80;99.90;;;;;;6210992;23;20009;-84
2021/08/21 03:26:37;;;;;;;11.05;7.95;;;15.80;99.90;;;;;;6212346;23;20005;-84
2021/08/21 03:29:03;;;;;;;11.30;7.60;;;15.80;99.90;;;;;;6187604;23;20079;-84
2021/08/21 03:31:29;;;;;;;10.60;7.65;;;15.80;99.90;;;;;;6212412;23;20016;-84
2021/08/21 03:33:56;;;;;;;12.50;7.45;;;15.80;99.90;;;;;;6212760;23;20387;-84
2021/08/21 03:36:22;;;;;;;11.88;7.90;;;15.70;99.90;;;;;;6215187;23;20019;-84
2021/08/21 03:38:47;;;;;;;11.55;7.15;;;15.70;99.90;;;;;;6193018;23;19997;-85
2021/08/21 03:41:13;;;;;;;13.32;8.20;;;15.80;99.90;;;;;;6213557;23;20439;-85
2021/08/21 03:43:39;;;;;;;11.82;7.40;;;15.80;99.90;;;;;;6215377;23;20005;-84
2021/08/21 03:46:05;;;;;;;10.63;7.53;;;15.80;99.90;;;;;;6217061;22;20051;-84
2021/08/21 03:48:30;;;;;;;12.45;7.70;;;15.70;99.90;;;;;;6247823;23;20004;-82
2021/08/21 03:50:56;;;;;;;11.25;8.02;;;15.80;99.90;;;;;;6220010;23;20008;-81
2021/08/21 03:53:21;;;;;;;12.65;7.45;;;15.80;99.90;;;;;;6248275;23;20006;-82
2021/08/21 03:55:49;;;;;;;10.43;7.70;;;15.80;99.90;;;;;;6221106;23;20015;-81
2021/08/21 03:58:15;;;;;;;12.48;7.95;;;15.70;99.90;;;;;;6221237;23;20348;-82
2021/08/21 04:00:40;;;;;;;12.77;7.78;;;15.80;99.90;;;;;;6219592;23;20027;-84
2021/08/21 04:03:06;;;;;;;13.70;7.85;;;15.70;99.90;;;;;;6248110;23;20415;-84
2021/08/21 04:05:32;;;;;;;14.60;8.98;;;15.70;99.90;;;;;;6220514;23;20000;-84
2021/08/21 04:07:57;;;;;;;12.15;8.10;;;15.70;99.90;;;;;;6248413;23;19996;-84
2021/08/21 04:10:23;;;;;;;13.27;8.32;;;15.70;99.90;;;;;;6220060;23;20054;-85
2021/08/21 04:12:49;;;;;;;11.30;8.30;;;15.70;99.90;;;;;;6248962;23;20000;-84
2021/08/21 04:15:15;;;;;;;11.30;8.27;;;15.70;99.90;;;;;;6221684;23;20457;-84
2021/08/21 04:17:40;;;;;;;12.02;8.00;;;15.70;99.90;;;;;;6249411;23;20014;-86
2021/08/21 04:20:07;;;;;;;13.10;8.10;;;15.70;99.90;;;;;;6221925;23;20374;-86
2021/08/21 04:22:32;;;;;;;14.13;8.30;;;15.70;99.90;;;;;;6221961;23;20000;-85
2021/08/21 04:24:58;;;;;;;12.93;8.40;;;15.70;99.90;;;;;;6248122;23;20438;-85
2021/08/21 04:27:24;;;;;;;12.00;7.75;;;15.80;99.90;;;;;;6248388;23;20000;-85
2021/08/21 04:29:50;;;;;;;13.35;7.57;;;15.80;99.90;;;;;;6222282;23;20019;-84
2021/08/21 04:32:15;;;;;;;11.77;7.53;;;15.80;99.90;;;;;;6222315;23;20099;-84
2021/08/21 04:34:41;;;;;;;11.82;7.90;;;15.80;99.90;;;;;;6222485;23;20008;-84
2021/08/21 04:37:06;;;;;;;12.52;7.32;;;15.80;99.90;;;;;;6249085;23;20410;-85
2021/08/21 04:39:32;;;;;;;12.25;8.20;;;15.80;99.90;;;;;;6220598;23;20085;-82
2021/08/21 04:41:59;;;;;;;15.68;9.63;;;15.90;99.90;;;;;;6221911;23;20000;-82
2021/08/21 04:44:24;;;;;;;13.88;8.77;;;15.90;99.90;;;;;;6221395;23;20028;-82
2021/08/21 04:46:50;;;;;;;13.18;8.02;;;15.90;99.90;;;;;;6248608;23;20024;-82
2021/08/21 04:49:16;;;;;;;14.80;8.35;;;16.00;99.90;;;;;;6247792;23;20004;-82
2021/08/21 04:51:41;;;;;;;12.77;7.57;;;16.00;99.90;;;;;;6220819;23;20428;-82
2021/08/21 04:54:07;;;;;;;11.07;7.93;;;16.00;99.90;;;;;;6220423;23;20601;-83
2021/08/21 04:56:32;;;;;;;13.25;7.82;;;16.10;99.90;;;;;;6221748;23;20011;-82
2021/08/21 04:58:59;;;;;;;13.63;8.30;;;16.10;99.90;;;;;;6220980;23;20000;-82
2021/08/21 05:01:24;;;;;;;10.43;7.95;;;16.10;99.90;;;;;;6222381;23;20046;-82
2021/08/21 05:03:50;;;;;;;12.73;8.27;;;16.10;99.90;;;;;;6248941;23;20075;-82
2021/08/21 05:06:15;;;;;;;13.10;8.13;;;16.20;99.90;;;;;;6248568;23;19996;-82
2021/08/21 05:08:42;;;;;;;11.90;8.18;;;16.10;99.90;;;;;;6247105;23;20030;-82
2021/08/21 05:11:08;;;;;;;15.52;9.20;;;16.20;99.90;;;;;;6218841;23;20083;-82
2021/08/21 05:13:34;;;;;;;13.38;9.15;;;16.20;99.90;;;;;;6221278;23;20084;-83
2021/08/21 05:16:00;;;;;;;15.68;9.93;;;16.30;99.90;;;;;;6248058;23;20005;-81
2021/08/21 05:18:30;;;;;;;15.60;9.82;;;16.30;99.90;;;;;;6221368;23;20004;-82
2021/08/21 05:21:05;;;;;;;14.65;10.15;;;16.30;99.90;;;;;;6220092;23;20378;-82
2021/08/21 05:23:31;;;;;;;14.65;9.77;;;16.40;99.90;;;;;;6221000;23;20016;-82
2021/08/21 05:25:57;;;;;;;17.30;10.07;;;16.40;99.90;;;;;;6219645;23;20008;-84
2021/08/21 05:28:23;;;;;;;20.90;10.10;;;16.50;99.90;;;;;;6221024;23;20004;-84
2021/08/21 05:30:49;;;;;;;18.90;10.30;;;16.50;99.90;;;;;;6219621;23;20030;-85
2021/08/21 05:33:17;;;;;;;16.10;10.18;;;16.60;99.90;;;;;;6246849;23;20004;-82
2021/08/21 05:35:43;;;;;;;15.05;8.95;;;16.60;99.90;;;;;;6219679;23;20447;-84
2021/08/21 05:38:10;;;;;;;11.80;8.52;;;16.60;99.90;;;;;;6247314;23;20012;-84
2021/08/21 05:40:36;;;;;;;13.90;9.38;;;16.60;99.90;;;;;;6218892;23;20000;-84
2021/08/21 05:43:02;;;;;;;15.55;8.95;;;16.70;99.90;;;;;;6219738;23;20004;-85
2021/08/21 05:45:29;;;;;;;12.77;8.45;;;16.70;99.90;;;;;;6247002;23;20023;-84
2021/08/21 05:47:55;;;;;;;15.25;9.80;;;16.80;99.90;;;;;;6247274;23;20066;-83
2021/08/21 05:50:21;;;;;;;16.25;10.13;;;16.80;99.90;;;;;;6244995;23;20066;-84
2021/08/21 05:52:48;;;;;;;19.60;9.43;;;16.80;99.90;;;;;;6218526;23;20012;-84
2021/08/21 05:55:14;;;;;;;13.38;9.60;;;16.90;99.90;;;;;;6244371;23;20081;-84
2021/08/21 05:57:40;;;;;;;16.48;10.15;;;16.90;99.90;;;;;;6217398;23;20004;-85
2021/08/21 06:00:07;;;;;;;13.10;8.93;;;17.00;99.90;;;;;;6217089;23;20010;-84
2021/08/21 06:02:33;;;;;;;13.88;8.93;;;17.00;99.90;;;;;;6218341;23;20028;-84
2021/08/21 06:04:59;;;;;;;13.18;8.15;;;17.10;99.90;;;;;;6220418;23;20011;-84
2021/08/21 06:07:25;;;;;;;18.83;9.27;;;17.20;99.90;;;;;;6221088;23;20004;-85
2021/08/21 06:09:50;;;;;;;19.85;10.05;;;17.20;99.90;;;;;;6218954;23;20027;-84
2021/08/21 06:12:16;;;;;;;14.80;9.70;;;17.20;99.90;;;;;;6219904;23;20016;-84
2021/08/21 06:14:42;;;;;;;12.95;8.00;;;17.30;99.90;;;;;;6247115;23;20115;-84
2021/08/21 06:17:08;;;;;;;14.52;9.55;;;17.30;99.90;;;;;;6220139;23;20014;-84
2021/08/21 06:19:35;;;;;;;16.00;9.57;;;17.30;99.90;;;;;;6219827;23;20028;-85
2021/08/21 06:22:00;;;;;;;16.83;9.18;;;17.40;99.90;;;;;;6219680;23;20316;-86
2021/08/21 06:24:26;;;;;;;14.20;8.52;;;17.40;99.90;;;;;;6245199;23;19999;-86
2021/08/21 06:26:52;;;;;;;13.02;8.52;;;17.50;99.90;;;;;;6218552;23;20008;-86
2021/08/21 06:29:17;;;;;;;14.02;8.02;;;17.50;99.90;;;;;;6247469;23;20008;-84
2021/08/21 06:31:43;;;;;;;17.08;10.45;;;17.50;99.90;;;;;;6249579;23;20000;-84
2021/08/21 06:34:09;;;;;;;16.83;10.00;;;17.60;99.90;;;;;;6221518;23;20004;-84
2021/08/21 06:36:35;;;;;;;13.18;8.40;;;17.60;99.90;;;;;;6221872;23;20154;-84
2021/08/21 06:39:00;;;;;;;15.25;8.85;;;17.60;99.90;;;;;;6220326;23;20217;-84
2021/08/21 06:41:26;;;;;;;16.60;8.73;;;17.60;99.90;;;;;;6221240;23;20035;-84
2021/08/21 06:43:51;;;;;;;16.33;9.65;;;17.60;99.90;;;;;;6221238;23;20005;-85
2021/08/21 06:46:17;;;;;;;16.15;10.02;;;17.60;99.90;;;;;;6222503;23;20015;-86
2021/08/21 06:48:43;;;;;;;15.70;10.10;;;17.60;99.90;;;;;;6219550;23;20008;-84
2021/08/21 06:51:08;;;;;;;12.77;8.90;;;17.60;99.90;;;;;;6247429;23;20447;-84
2021/08/21 06:53:35;;;;;;;15.93;10.10;;;17.60;99.90;;;;;;6247375;23;20000;-84
2021/08/21 06:56:02;;;;;;;13.23;9.18;;;17.60;99.90;;;;;;6220043;23;20429;-85
2021/08/21 06:58:28;;;;;;;13.48;8.50;;;17.60;99.90;;;;;;6220686;23;20378;-84
2021/08/21 07:00:55;;;;;;;16.88;9.38;;;17.70;99.90;;;;;;6220055;23;20007;-85
2021/08/21 07:03:20;;;;;;;11.20;7.57;;;17.70;99.90;;;;;;6248124;23;20433;-84
2021/08/21 07:05:46;;;;;;;15.38;8.20;;;17.80;99.90;;;;;;6221309;23;20114;-85
2021/08/21 07:08:12;;;;;;;10.23;6.80;;;17.80;99.90;;;;;;6247856;23;20000;-84
2021/08/21 07:10:38;;;;;;;11.32;7.70;;;17.90;99.90;;;;;;6246773;23;20613;-84
2021/08/21 07:13:03;;;;;;;12.07;8.20;;;17.90;99.90;;;;;;6220765;23;20000;-84
2021/08/21 07:15:29;;;;;;;12.45;7.70;;;17.90;99.90;;;;;;6220261;23;20453;-84
2021/08/21 07:17:55;;;;;;;10.07;6.85;;;18.00;99.90;;;;;;6221258;23;20431;-84
2021/08/21 07:20:20;;;;;;;14.00;7.03;;;18.00;99.90;;;;;;6220291;23;20019;-86
2021/08/21 07:22:46;;;;;;;9.93;7.07;;;18.10;99.90;;;;;;6220350;23;19996;-84
2021/08/21 07:25:12;;;;;;;12.02;6.97;;;18.10;99.90;;;;;;6219646;23;19997;-84
2021/08/21 07:27:37;;;;;;;9.10;6.68;;;18.10;99.90;;;;;;6221006;23;20011;-85
2021/08/21 07:30:04;;;;;;;12.82;7.13;;;18.20;99.90;;;;;;6218329;23;20061;-85
2021/08/21 07:32:30;;;;;;;11.60;7.00;;;18.20;99.90;;;;;;6219601;23;20008;-84
2021/08/21 07:34:56;;;;;;;9.75;6.78;;;18.30;99.90;;;;;;6218957;23;20110;-84
2021/08/21 07:37:22;;;;;;;11.15;8.20;;;18.30;99.90;;;;;;6219315;23;20031;-84
2021/08/21 07:39:48;;;;;;;12.27;8.13;;;18.30;99.90;;;;;;6217423;23;19996;-84
2021/08/21 07:42:13;;;;;;;10.32;6.88;;;18.40;99.90;;;;;;6219311;23;20000;-84
2021/08/21 07:44:39;;;;;;;8.75;6.90;;;18.40;99.90;;;;;;6218940;23;20323;-84
2021/08/21 07:47:05;;;;;;;10.07;6.32;;;18.50;99.90;;;;;;6218631;23;20066;-83
2021/08/21 07:49:30;;;;;;;9.35;6.05;;;18.50;99.90;;;;;;6218045;23;20080;-84
2021/08/21 07:51:56;;;;;;;9.63;5.90;;;18.60;99.90;;;;;;6245712;23;20028;-84
2021/08/21 07:54:22;;;;;;;8.48;6.45;;;18.60;99.90;;;;;;6218709;23;20000;-84
2021/08/21 07:56:48;;;;;;;10.15;5.68;;;18.70;99.90;;;;;;6218211;23;20079;-87
2021/08/21 07:59:13;;;;;;;9.13;6.38;;;18.70;99.90;;;;;;6217217;23;20008;-85
2021/08/21 08:01:39;;;;;;;9.48;5.85;;;18.70;99.90;;;;;;6217941;23;20000;-87
2021/08/21 08:04:05;;;;;;;8.75;6.22;;;18.70;99.90;;;;;;6244285;23;20019;-86
2021/08/21 08:06:30;;;;;;;9.07;6.38;;;18.80;99.90;;;;;;6217841;23;20508;-86
2021/08/21 08:08:56;;;;;;;8.57;5.80;;;18.80;99.90;;;;;;6244421;23;20003;-86
2021/08/21 08:11:22;;;;;;;11.05;5.80;;;18.80;99.90;;;;;;6218906;23;20011;-85
2021/08/21 08:13:47;;;;;;;8.30;5.20;;;18.80;99.90;;;;;;6244688;23;19996;-84
2021/08/21 08:16:13;;;;;;;9.05;5.97;;;18.90;99.90;;;;;;6214841;23;20083;-84
2021/08/21 08:18:39;;;;;;;7.07;5.38;;;18.90;99.90;;;;;;6217393;23;20512;-84
2021/08/21 08:21:04;;;;;;;9.43;6.60;;;18.90;99.90;;;;;;6216363;23;20015;-84
2021/08/21 08:23:30;;;;;;;8.35;5.40;;;18.90;99.90;;;;;;6216884;23;20010;-88
2021/08/21 08:25:55;;;;;;;7.90;5.68;;;19.00;99.90;;;;;;6242766;23;19996;-84
2021/08/21 08:28:21;;;;;;;9.27;5.88;;;19.00;99.90;;;;;;6215246;23;20323;-85
2021/08/21 08:30:47;;;;;;;7.55;5.47;;;19.10;99.90;;;;;;6214824;23;20004;-85
2021/08/21 08:33:12;;;;;;;7.95;4.63;;;19.10;99.90;;;;;;6216235;23;20004;-85
2021/08/21 08:35:38;;;;;;;8.82;5.57;;;19.10;99.90;;;;;;6243466;23;20004;-86
2021/08/21 08:38:04;;;;;;;8.18;5.13;;;19.20;99.90;;;;;;6242930;23;20000;-86
2021/08/21 08:40:30;;;;;;;8.68;5.18;;;19.20;99.90;;;;;;6214828;23;20001;-86
2021/08/21 08:43:00;;;;;;;7.28;5.00;;;19.20;99.90;;;;;;6215929;23;20038;-87
2021/08/21 08:45:25;;;;;;;9.80;4.97;;;19.20;99.90;;;;;;6216244;23;20343;-86
2021/08/21 08:47:52;;;;;;;9.75;5.75;;;19.30;99.90;;;;;;6217093;23;20027;-83
2021/08/21 08:50:17;;;;;;;8.13;5.50;;;19.40;99.90;;;;;;6219505;23;20004;-82
2021/08/21 08:52:43;;;;;;;10.70;6.35;;;19.40;99.90;;;;;;6247218;23;20011;-80
2021/08/21 08:55:10;;;;;;;9.73;6.05;;;19.50;99.90;;;;;;6217305;23;20011;-82
2021/08/21 08:57:38;;;;;;;6.63;5.03;;;19.60;99.90;;;;;;6217783;23;20004;-82
2021/08/21 09:00:25;;;;;;;9.45;5.93;;;19.60;99.90;;;;;;6217527;23;20027;-82
2021/08/21 09:02:53;;;;;;;8.23;5.40;;;19.70;99.90;;;;;;6219140;23;20020;-82
2021/08/21 09:05:21;;;;;;;10.93;5.50;;;19.70;99.90;;;;;;6246308;23;20007;-86
2021/08/21 09:07:51;;;;;;;9.65;5.85;;;19.70;99.90;;;;;;6215997;23;20358;-87
2021/08/21 09:10:20;;;;;;;8.57;5.78;;;19.80;99.90;;;;;;6215422;23;19996;-87
2021/08/21 09:12:48;;;;;;;8.20;5.07;;;19.80;99.90;;;;;;6216487;23;20439;-88
2021/08/21 09:15:22;;;;;;;7.68;5.47;;;19.90;99.90;;;;;;6216508;23;20004;-87
2021/08/21 09:18:13;;;;;;;9.98;6.32;;;19.80;99.90;;;;;;6243759;23;20001;-86
2021/08/21 09:20:47;;;;;;;8.63;5.63;;;19.90;99.90;;;;;;6243285;23;20071;-85
2021/08/21 09:23:21;;;;;;;10.32;6.45;;;19.90;99.90;;;;;;6243956;23;20000;-85
2021/08/21 09:25:48;;;;;;;9.60;5.28;;;19.90;99.90;;;;;;6242887;23;20048;-85
2021/08/21 09:28:21;;;;;;;8.40;5.75;;;19.90;99.90;;;;;;6243167;23;20000;-85
2021/08/21 09:30:47;;;;;;;8.13;4.80;;;19.80;99.90;;;;;;6242761;23;20027;-85
2021/08/21 09:33:18;;;;;;;9.02;4.97;;;19.80;99.90;;;;;;6218201;23;20004;-84
2021/08/21 09:35:44;;;;;;;8.65;5.70;;;19.90;99.90;;;;;;6217502;23;20458;-83
2021/08/21 09:38:10;;;;;;;8.82;5.88;;;19.90;99.90;;;;;;6218768;23;20004;-82
2021/08/21 09:40:38;;;;;;;9.23;5.20;;;20.00;99.90;;;;;;6244442;23;20071;-83
2021/08/21 09:43:06;;;;;;;9.80;4.97;;;20.00;99.90;;;;;;6219022;23;19997;-83
2021/08/21 09:45:38;;;;;;;6.65;4.28;;;20.00;99.90;;;;;;6218383;23;20012;-82
2021/08/21 09:48:06;;;;;;;6.80;4.25;;;20.10;99.90;;;;;;6242203;22;20032;-86
2021/08/21 09:50:42;;;;;;;6.93;3.97;;;20.10;99.90;;;;;;6214952;23;20076;-85
2021/08/21 09:53:11;;;;;;;8.18;4.35;;;20.00;99.90;;;;;;6215861;23;20023;-86
2021/08/21 09:55:38;;;;;;;7.63;4.25;;;20.10;99.90;;;;;;6215863;23;20008;-86
2021/08/21 09:58:05;;;;;;;6.20;3.58;;;20.10;99.90;;;;;;6215367;23;20028;-86
2021/08/21 10:00:34;;;;;;;5.90;3.00;;;20.10;99.90;;;;;;6242167;23;20078;-86
2021/08/21 10:03:03;;;;;;;4.60;2.85;;;20.10;99.90;;;;;;6216086;23;20004;-85
2021/08/21 10:05:29;;;;;;;5.07;3.17;;;20.10;99.90;;;;;;6215587;23;20005;-85
2021/08/21 10:08:04;;;;;;;7.03;3.75;;;20.10;99.90;;;;;;6215649;23;20004;-85
2021/08/21 10:10:38;;;;;;;7.93;3.42;;;20.20;99.90;;;;;;6215227;23;20015;-86
2021/08/21 10:13:18;;;;;;;6.63;3.70;;;20.20;99.90;;;;;;6216153;23;20012;-85
2021/08/21 10:15:46;;;;;;;4.80;3.42;;;20.20;99.90;;;;;;6215992;23;20086;-85
2021/08/21 10:18:11;;;;;;;6.03;3.95;;;20.30;99.90;;;;;;6215438;23;20294;-86
2021/08/21 10:20:38;;;;;;;5.60;3.30;;;20.30;99.90;;;;;;6215432;23;19997;-85
2021/08/21 10:23:15;;;;;;;6.07;3.80;;;20.20;99.90;;;;;;6242958;23;20402;-85
2021/08/21 10:25:47;;;;;;;5.10;3.50;;;20.30;99.90;;;;;;6215199;23;20083;-85
2021/08/21 10:28:15;;;;;;;4.47;2.80;;;20.30;99.90;;;;;;6215588;23;20012;-86
2021/08/21 10:30:51;;;;;;;4.70;2.90;;;20.40;99.70;;;;;;6215133;23;20001;-86
2021/08/21 10:33:17;;;;;;;3.35;2.42;;;20.40;99.00;;;;;;6215744;23;20008;-86
2021/08/21 10:35:53;;;;;;;3.55;2.47;;;20.40;99.20;;;;;;6215727;23;20004;-85
2021/08/21 10:38:35;;;;;;;3.65;2.00;;;20.50;98.90;;;;;;6215071;23;20028;-86
2021/08/21 10:41:01;;;;;;;6.28;2.75;;;20.60;98.70;;;;;;6214639;23;20428;-86
2021/08/21 10:43:51;;;;;;;5.30;2.50;;;20.70;98.80;;;;;;6242664;23;20404;-85
2021/08/21 10:46:31;;;;;;;3.75;2.45;;;20.90;98.30;;;;;;6215664;23;20000;-86
2021/08/21 10:49:03;;;;;;;4.20;2.42;;;20.90;98.10;;;;;;6214561;23;20027;-85
2021/08/21 10:51:37;;;;;;;3.70;2.40;;;20.80;98.30;;;;;;6217405;23;20000;-86
2021/08/21 10:54:25;;;;;;;5.03;2.38;;;20.80;98.80;;;;;;6216987;23;20004;-86
2021/08/21 10:56:52;;;;;;;4.18;2.30;;;20.70;97.90;;;;;;6217649;23;20427;-86
2021/08/21 10:59:40;;;;;;;6.43;2.20;;;20.80;97.90;;;;;;6216859;23;20099;-86
2021/08/21 11:02:21;;;;;;;4.07;2.00;;;20.80;97.90;;;;;;6244604;23;19996;-85
2021/08/21 11:04:47;;;;;;;3.63;2.13;;;20.80;98.00;;;;;;6217404;23;20011;-86
2021/08/21 11:07:37;;;;;;;3.38;2.15;;;20.90;97.60;;;;;;6217600;23;20000;-86
2021/08/21 11:10:22;;;;;;;4.30;2.00;;;21.00;97.20;;;;;;6216324;23;20331;-86
2021/08/21 11:12:51;;;;;;;3.10;2.00;;;21.00;97.20;;;;;;6217566;23;20007;-85
2021/08/21 11:15:18;;;;;;;;;;;21.10;96.90;;;;;;6244940;23;20000;-86
2021/08/21 11:17:43;;;;;;;4.22;2.42;;;21.10;96.90;;;;;;6216441;23;20341;-86
2021/08/21 11:20:35;;;;;;;3.20;1.90;;;21.20;96.90;;;;;;6216704;23;20001;-86
2021/08/21 11:23:06;;;;;;;2.92;1.98;;;21.30;96.40;;;;;;6217932;23;20004;-86
2021/08/21 11:25:40;;;;;;;4.45;2.38;;;21.30;95.70;;;;;;6216679;23;20012;-85
2021/08/21 11:28:13;;;;;;;3.30;1.80;;;21.40;95.60;;;;;;6216660;23;20004;-86
2021/08/21 11:30:39;;;;;;;3.90;1.98;;;21.40;95.40;;;;;;6216656;23;20457;-85
2021/08/21 11:33:08;;;;;;;4.10;1.70;;;21.40;95.30;;;;;;6244170;23;20464;-85
2021/08/21 11:35:47;;;;;;;;;;;21.40;94.70;;;;;;6244231;23;20083;-86
2021/08/21 11:38:16;;;;;;;3.58;2.25;;;21.50;94.60;;;;;;6216687;23;19990;-86
2021/08/21 11:40:43;;;;;;;3.13;1.90;;;21.50;94.70;;;;;;6242481;23;19996;-86
2021/08/21 11:43:16;;;;;;;3.20;1.85;;;21.50;94.90;;;;;;6216831;23;20007;-86
2021/08/21 11:45:43;;;;;;;4.10;1.95;;;21.40;95.30;;;;;;6216722;23;20306;-86
2021/08/21 11:48:09;;;;;;;2.78;1.90;;;21.40;95.10;;;;;;6216212;23;20485;-86
2021/08/21 11:50:36;;;;;;;2.75;1.75;;;21.40;95.20;;;;;;6215941;23;20004;-86
2021/08/21 11:53:08;;;;;;;3.47;1.92;;;21.30;96.00;;;;;;6217766;23;20031;-85
2021/08/21 11:55:35;;;;;;;3.65;2.10;;;21.30;95.30;;;;;;6216238;23;20058;-86
2021/08/21 11:58:01;;;;;;;4.13;2.30;;;21.40;94.80;;;;;;6216383;23;20387;-85
2021/08/21 12:00:32;;;;;;;3.60;2.22;;;21.50;95.00;;;;;;6215388;23;20035;-86
2021/08/21 12:03:02;;;;;;;2.90;1.75;;;21.60;94.70;;;;;;6216542;23;20042;-86
2021/08/21 12:05:45;;;;;;;3.13;2.05;;;21.60;94.70;;;;;;6244470;23;20027;-86
2021/08/21 12:08:25;;;;;;;5.75;3.30;;;21.60;95.00;;;;;;6216587;23;19996;-86
2021/08/21 12:10:53;;;;;;;5.10;2.92;;;21.50;95.10;;;;;;6215298;23;20030;-86
2021/08/21 12:13:25;;;;;;;4.15;2.67;;;21.50;95.30;;;;;;6217317;23;20088;-85
2021/08/21 12:15:51;;;;;;;2.65;1.95;;;21.50;95.50;;;;;;6245301;23;20427;-86
2021/08/21 12:18:20;;;;;;;3.80;2.35;;;21.50;96.30;;;;;;6220183;23;20023;-86
2021/08/21 12:20:46;;;;;;;3.95;2.40;;;21.40;96.20;;;;;;6248374;23;20000;-86
2021/08/21 12:23:13;;;;;;;3.20;1.90;;;21.50;95.60;;;;;;6219790;23;20455;-86
2021/08/21 12:25:47;;;;;;;3.42;1.80;;;21.60;95.80;;;;;;6216735;23;20109;-86
2021/08/21 12:28:14;;;;;;;3.17;1.80;;;21.60;95.50;;;;;;6217514;23;20004;-86
2021/08/21 12:30:40;;;;;;;3.28;1.70;;;21.70;94.90;;;;;;6220448;23;20103;-86
2021/08/21 12:33:11;;;;;;;3.40;1.80;;;21.80;94.70;;;;;;6218574;23;20088;-86
2021/08/21 12:35:37;;;;;;;2.28;1.52;;;21.90;94.60;;;;;;6218444;23;20011;-85
2021/08/21 12:38:06;;;;;;;2.30;1.70;;;21.90;95.00;;;;;;6219257;23;20004;-85
2021/08/21 12:40:33;;;;;;;4.68;1.80;;;21.90;95.20;;;;;;6219048;23;20284;-86
2021/08/21 12:43:07;;;;;;;2.40;1.73;;;22.00;95.00;;;;;;6219645;23;20135;-86
2021/08/21 12:45:42;;;;;;;3.30;2.00;;;22.00;95.00;;;;;;6219718;23;20047;-86